createdAt,value
2023-02-06T00:02:17.802Z,5.30
2023-02-06T00:04:44.297Z,5.30
2023-02-06T00:07:10.890Z,5.30
2023-02-06T00:09:37.391Z,5.20
2023-02-06T00:12:04.008Z,5.20
2023-02-06T00:14:30.492Z,5.20
2023-02-06T00:16:57.127Z,5.20
2023-02-06T00:19:23.687Z,5.20
2023-02-06T00:21:50.291Z,5.20
2023-02-06T00:24:16.829Z,5.20
2023-02-06T00:26:43.389Z,5.20
2023-02-06T00:29:10.084Z,5.20
2023-02-06T00:31:36.793Z,5.20
2023-02-06T00:34:03.889Z,5.20
2023-02-06T00:36:30.493Z,5.20
2023-02-06T00:38:57.085Z,5.10
2023-02-06T00:41:23.696Z,5.10
2023-02-06T00:43:50.205Z,5.10
2023-02-06T00:46:16.843Z,5.10
2023-02-06T00:48:43.445Z,5.10
2023-02-06T00:51:10.162Z,5.00
2023-02-06T00:53:36.867Z,4.90
2023-02-06T00:56:03.780Z,4.90
2023-02-06T00:58:30.318Z,4.80
2023-02-06T01:00:56.958Z,4.80
2023-02-06T01:03:23.591Z,4.80
2023-02-06T01:05:50.183Z,4.70
2023-02-06T01:08:16.757Z,4.70
2023-02-06T01:10:43.984Z,4.70
2023-02-06T01:13:10.778Z,4.60
2023-02-06T01:15:37.536Z,4.50
2023-02-06T01:18:04.393Z,4.40
2023-02-06T01:20:31.064Z,4.40
2023-02-06T01:22:57.721Z,4.30
2023-02-06T01:25:24.340Z,4.30
2023-02-06T01:27:50.890Z,4.20
2023-02-06T01:30:17.494Z,4.20
2023-02-06T01:32:44.264Z,4.10
2023-02-06T01:35:11.635Z,4.10
2023-02-06T01:37:38.977Z,4.00
2023-02-06T01:40:06.436Z,4.00
2023-02-06T01:42:36.745Z,3.90
2023-02-06T01:45:21.798Z,3.90
2023-02-06T01:47:54.205Z,3.90
2023-02-06T01:50:20.909Z,3.80
2023-02-06T01:52:47.631Z,3.80
2023-02-06T01:55:14.306Z,3.90
2023-02-06T01:57:41.925Z,3.80
2023-02-06T02:00:09.758Z,3.80
2023-02-06T02:02:37.493Z,3.80
2023-02-06T02:05:07.158Z,3.80
2023-02-06T02:07:35.603Z,3.70
2023-02-06T02:10:02.370Z,3.70
2023-02-06T02:12:28.969Z,3.70
2023-02-06T02:14:56.156Z,3.70
2023-02-06T02:17:23.018Z,3.60
2023-02-06T02:19:52.263Z,3.60
2023-02-06T02:22:41.962Z,3.60
2023-02-06T02:25:26.881Z,3.50
2023-02-06T02:27:53.506Z,3.40
2023-02-06T02:30:20.088Z,3.40
2023-02-06T02:32:52.536Z,3.30
2023-02-06T02:35:43.822Z,3.30
2023-02-06T02:38:22.307Z,3.30
2023-02-06T02:41:03.376Z,3.20
2023-02-06T02:43:35.370Z,3.20
2023-02-06T02:46:15.082Z,3.10
2023-02-06T02:48:42.903Z,3.00
2023-02-06T02:53:58.798Z,2.90
2023-02-06T02:56:26.179Z,2.90
2023-02-06T02:58:58.551Z,2.90
2023-02-06T03:01:29.052Z,2.80
2023-02-06T03:03:57.477Z,2.70
2023-02-06T03:06:36.418Z,2.70
2023-02-06T03:09:06.162Z,2.60
2023-02-06T03:11:32.835Z,2.60
2023-02-06T03:14:03.484Z,2.60
2023-02-06T03:16:36.144Z,2.50
2023-02-06T03:19:09.331Z,2.50
2023-02-06T03:24:26.539Z,2.40
2023-02-06T03:26:56.504Z,2.40
2023-02-06T03:29:23.855Z,2.30
2023-02-06T03:31:50.412Z,2.30
2023-02-06T03:34:22.992Z,2.20
2023-02-06T03:36:50.276Z,2.20
2023-02-06T03:39:16.807Z,2.10
2023-02-06T03:41:44.039Z,2.10
2023-02-06T03:44:13.047Z,2.10
2023-02-06T03:46:40.351Z,2.00
2023-02-06T03:49:07.905Z,2.00
2023-02-06T03:54:02.452Z,1.90
2023-02-06T03:56:32.840Z,1.90
2023-02-06T03:58:59.571Z,1.90
2023-02-06T04:01:26.247Z,1.90
2023-02-06T04:03:53.001Z,1.90
2023-02-06T04:06:19.757Z,1.90
2023-02-06T04:08:46.310Z,1.80
2023-02-06T04:11:12.789Z,1.80
2023-02-06T04:13:39.379Z,1.90
2023-02-06T04:16:05.953Z,1.90
2023-02-06T04:18:32.489Z,1.80
2023-02-06T04:21:06.239Z,1.80
2023-02-06T04:23:33.163Z,1.80
2023-02-06T04:25:59.710Z,1.70
2023-02-06T04:28:26.277Z,1.70
2023-02-06T04:30:53.098Z,1.60
2023-02-06T04:33:19.698Z,1.60
2023-02-06T04:35:47.245Z,1.60
2023-02-06T04:38:13.868Z,1.60
2023-02-06T04:40:40.439Z,1.60
2023-02-06T04:43:06.988Z,1.60
2023-02-06T04:45:33.592Z,1.50
2023-02-06T04:48:00.146Z,1.50
2023-02-06T04:50:31.187Z,1.50
2023-02-06T04:52:58.199Z,1.50
2023-02-06T04:55:24.715Z,1.50
2023-02-06T04:57:51.237Z,1.40
2023-02-06T05:00:17.966Z,1.40
2023-02-06T05:02:44.575Z,1.30
2023-02-06T05:05:11.298Z,1.30
2023-02-06T05:07:37.981Z,1.20
2023-02-06T05:10:04.591Z,1.20
2023-02-06T05:12:31.072Z,1.20
2023-02-06T05:14:57.601Z,1.10
2023-02-06T05:17:24.129Z,1.10
2023-02-06T05:19:50.685Z,1.10
2023-02-06T05:22:17.279Z,1.10
2023-02-06T05:24:43.801Z,1.10
2023-02-06T05:27:10.321Z,1.10
2023-02-06T05:29:36.780Z,1.10
2023-02-06T05:32:03.598Z,1.10
2023-02-06T05:34:30.196Z,1.10
2023-02-06T05:36:56.726Z,1.10
2023-02-06T05:39:23.634Z,1.10
2023-02-06T05:41:50.207Z,1.10
2023-02-06T05:44:16.721Z,1.10
2023-02-06T05:46:44.160Z,1.10
2023-02-06T05:49:10.839Z,1.20
2023-02-06T05:51:37.332Z,1.20
2023-02-06T05:54:04.085Z,1.20
2023-02-06T05:56:30.705Z,1.20
2023-02-06T05:58:57.246Z,1.20
2023-02-06T06:01:23.890Z,1.10
2023-02-06T06:03:50.500Z,1.10
2023-02-06T06:06:17.104Z,1.10
2023-02-06T06:08:43.673Z,1.10
2023-02-06T06:11:10.300Z,1.00
2023-02-06T06:13:36.938Z,1.00
2023-02-06T06:16:03.609Z,0.90
2023-02-06T06:18:30.248Z,0.90
2023-02-06T06:20:57.034Z,0.90
2023-02-06T06:23:23.605Z,0.90
2023-02-06T06:25:50.216Z,0.90
2023-02-06T06:28:16.853Z,0.90
2023-02-06T06:30:43.660Z,0.90
2023-02-06T06:33:10.291Z,0.90
2023-02-06T06:35:37.197Z,0.90
2023-02-06T06:38:03.894Z,0.90
2023-02-06T06:40:30.484Z,0.90
2023-02-06T06:42:57.057Z,0.80
2023-02-06T06:45:23.625Z,0.80
2023-02-06T06:47:50.178Z,0.80
2023-02-06T06:50:16.763Z,0.80
2023-02-06T06:52:43.341Z,0.80
2023-02-06T06:55:10.733Z,0.70
2023-02-06T06:57:37.353Z,0.80
2023-02-06T07:00:04.715Z,0.90
2023-02-06T07:02:31.223Z,0.90
2023-02-06T07:04:58.015Z,1.00
2023-02-06T07:07:24.636Z,1.10
2023-02-06T07:09:51.297Z,1.10
2023-02-06T07:12:17.844Z,1.20
2023-02-06T07:14:44.442Z,1.20
2023-02-06T07:17:10.969Z,1.30
2023-02-06T07:19:37.582Z,1.30
2023-02-06T07:22:04.158Z,1.30
2023-02-06T07:24:30.975Z,1.30
2023-02-06T07:26:57.848Z,1.30
2023-02-06T07:29:27.587Z,1.40
2023-02-06T07:31:54.239Z,1.50
2023-02-06T07:34:20.982Z,1.50
2023-02-06T07:36:47.714Z,1.40
2023-02-06T07:39:14.437Z,1.50
2023-02-06T07:41:41.321Z,1.50
2023-02-06T07:44:08.213Z,1.50
2023-02-06T07:46:35.059Z,1.50
2023-02-06T07:49:01.878Z,1.40
2023-02-06T07:51:29.146Z,1.50
2023-02-06T07:53:55.708Z,1.60
2023-02-06T07:56:23.559Z,1.70
2023-02-06T07:58:51.344Z,1.60
2023-02-06T08:01:17.939Z,1.70
2023-02-06T08:03:44.782Z,1.70
2023-02-06T08:06:12.686Z,1.70
2023-02-06T08:08:39.361Z,1.70
2023-02-06T08:11:10.102Z,1.80
2023-02-06T08:13:36.847Z,1.90
2023-02-06T08:16:08.188Z,1.90
2023-02-06T08:18:34.810Z,1.90
2023-02-06T08:21:02.659Z,1.80
2023-02-06T08:23:29.363Z,1.80
2023-02-06T08:26:02.948Z,2.00
2023-02-06T08:28:29.993Z,2.00
2023-02-06T08:30:56.713Z,1.90
2023-02-06T08:33:23.487Z,2.00
2023-02-06T08:35:50.060Z,1.90
2023-02-06T08:38:16.594Z,2.00
2023-02-06T08:40:43.128Z,1.90
2023-02-06T08:43:09.675Z,2.00
2023-02-06T08:45:36.461Z,2.10
2023-02-06T08:48:03.251Z,2.10
2023-02-06T08:50:29.772Z,2.20
2023-02-06T08:52:56.421Z,2.30
2023-02-06T08:55:36.990Z,2.30
2023-02-06T08:58:04.242Z,2.40
2023-02-06T09:00:30.761Z,2.60
2023-02-06T09:02:57.392Z,2.50
2023-02-06T09:05:24.252Z,2.60
2023-02-06T09:07:50.886Z,2.70
2023-02-06T09:10:27.169Z,3.00
2023-02-06T09:12:55.118Z,3.20
2023-02-06T09:15:21.876Z,3.40
2023-02-06T09:17:48.502Z,3.60
2023-02-06T09:20:15.126Z,3.80
2023-02-06T09:22:41.689Z,3.90
2023-02-06T09:25:08.318Z,4.10
2023-02-06T09:27:35.692Z,4.30
2023-02-06T09:30:02.492Z,4.40
2023-02-06T09:32:29.072Z,4.70
2023-02-06T09:34:55.557Z,6.00
2023-02-06T09:37:22.711Z,6.30
2023-02-06T09:39:49.244Z,6.00
2023-02-06T09:42:27.595Z,6.20
2023-02-06T09:45:02.481Z,6.10
2023-02-06T09:47:31.202Z,5.80
2023-02-06T09:50:08.571Z,5.60
2023-02-06T09:53:00.859Z,5.40
2023-02-06T09:55:32.948Z,5.20
2023-02-06T09:58:08.330Z,4.90
2023-02-06T10:00:55.165Z,4.90
2023-02-06T10:03:30.887Z,5.10
2023-02-06T10:05:57.439Z,5.00
2023-02-06T10:08:30.214Z,5.00
2023-02-06T10:10:59.758Z,5.30
2023-02-06T10:13:33.157Z,5.70
2023-02-06T10:16:01.641Z,5.20
2023-02-06T10:18:37.622Z,5.20
2023-02-06T10:21:12.903Z,4.80
2023-02-06T10:23:43.153Z,4.20
2023-02-06T10:26:16.915Z,4.40
2023-02-06T10:28:45.173Z,4.40
2023-02-06T10:31:26.721Z,5.10
2023-02-06T10:34:12.070Z,6.40
2023-02-06T10:36:58.948Z,8.00
2023-02-06T10:39:25.592Z,10.60
2023-02-06T10:42:04.327Z,12.40
2023-02-06T10:44:51.514Z,12.10
2023-02-06T10:47:33.999Z,12.40
2023-02-06T10:50:03.264Z,10.10
2023-02-06T10:52:34.246Z,10.20
2023-02-06T10:55:17.206Z,7.60
2023-02-06T10:57:45.788Z,6.60
2023-02-06T11:00:17.348Z,6.10
2023-02-06T11:03:06.300Z,6.00
2023-02-06T11:05:34.163Z,6.60
2023-02-06T11:08:09.760Z,8.70
2023-02-06T11:10:37.204Z,9.50
2023-02-06T11:13:26.546Z,9.50
2023-02-06T11:15:56.780Z,8.20
2023-02-06T11:18:25.959Z,7.60
2023-02-06T11:20:55.533Z,6.90
2023-02-06T11:23:26.509Z,8.00
2023-02-06T11:25:58.170Z,8.00
2023-02-06T11:28:25.873Z,8.20
2023-02-06T11:30:57.621Z,9.10
2023-02-06T11:33:34.277Z,8.90
2023-02-06T11:36:01.220Z,7.40
2023-02-06T11:38:29.496Z,7.50
2023-02-06T11:41:02.890Z,8.10
2023-02-06T11:43:41.682Z,8.10
2023-02-06T11:46:11.415Z,9.00
2023-02-06T11:48:42.719Z,8.60
2023-02-06T11:51:09.805Z,9.40
2023-02-06T11:53:37.055Z,9.90
2023-02-06T11:56:15.042Z,8.10
2023-02-06T11:58:41.625Z,7.40
2023-02-06T12:01:16.328Z,7.50
2023-02-06T12:03:46.110Z,8.80
2023-02-06T12:06:14.873Z,9.00
2023-02-06T12:08:49.336Z,8.20
2023-02-06T12:11:35.136Z,7.30
2023-02-06T12:14:04.508Z,6.10
2023-02-06T12:16:34.061Z,6.30
2023-02-06T12:19:00.866Z,6.00
2023-02-06T12:21:31.787Z,6.00
2023-02-06T12:24:01.193Z,6.10
2023-02-06T12:26:29.488Z,7.00
2023-02-06T12:29:09.672Z,7.80
2023-02-06T12:31:38.808Z,8.50
2023-02-06T12:34:11.331Z,8.40
2023-02-06T12:36:50.977Z,8.30
2023-02-06T12:39:19.970Z,8.40
2023-02-06T12:42:04.887Z,8.10
2023-02-06T12:44:51.056Z,8.50
2023-02-06T12:47:21.167Z,8.20
2023-02-06T12:49:54.720Z,8.70
2023-02-06T12:52:31.947Z,8.00
2023-02-06T12:55:06.485Z,8.10
2023-02-06T12:57:34.481Z,8.60
2023-02-06T13:00:07.484Z,8.80
2023-02-06T13:02:52.811Z,8.10
2023-02-06T13:05:27.179Z,6.90
2023-02-06T13:07:55.386Z,6.70
2023-02-06T13:10:24.989Z,6.40
2023-02-06T13:12:58.793Z,6.60
2023-02-06T13:15:27.249Z,6.60
2023-02-06T13:17:55.668Z,6.40
2023-02-06T13:20:23.673Z,6.90
2023-02-06T13:22:51.776Z,7.10
2023-02-06T13:25:41.805Z,7.30
2023-02-06T13:28:20.389Z,7.10
2023-02-06T13:30:59.064Z,7.40
2023-02-06T13:33:27.011Z,7.80
2023-02-06T13:35:56.433Z,7.80
2023-02-06T13:38:23.027Z,7.60
2023-02-06T13:41:09.865Z,7.70
2023-02-06T13:43:36.571Z,7.90
2023-02-06T13:46:07.422Z,7.60
2023-02-06T13:48:46.929Z,7.90
2023-02-06T13:51:35.209Z,8.30
2023-02-06T13:54:10.691Z,8.70
2023-02-06T13:56:40.501Z,8.70
2023-02-06T13:59:15.186Z,8.00
2023-02-06T14:01:41.804Z,7.70
2023-02-06T14:04:10.822Z,7.40
2023-02-06T14:06:37.548Z,7.30
2023-02-06T14:09:04.102Z,7.30
2023-02-06T14:12:01.524Z,6.90
2023-02-06T14:14:38.636Z,7.20
2023-02-06T14:17:05.148Z,7.10
2023-02-06T14:19:46.619Z,7.20
2023-02-06T14:22:45.319Z,6.80
2023-02-06T14:25:28.524Z,7.10
2023-02-06T14:28:04.241Z,7.00
2023-02-06T14:30:36.611Z,7.00
2023-02-06T14:33:27.114Z,7.20
2023-02-06T14:36:00.536Z,7.20
2023-02-06T14:38:33.065Z,6.90
2023-02-06T14:41:00.246Z,6.70
2023-02-06T14:43:29.003Z,6.80
2023-02-06T14:46:06.800Z,6.70
2023-02-06T14:48:45.566Z,6.80
2023-02-06T14:51:21.155Z,6.70
2023-02-06T14:56:23.773Z,6.60
2023-02-06T14:58:51.237Z,6.10
2023-02-06T15:01:18.139Z,6.10
2023-02-06T15:03:45.606Z,6.20
2023-02-06T15:06:13.935Z,6.30
2023-02-06T15:08:48.421Z,6.30
2023-02-06T15:11:18.935Z,6.10
2023-02-06T15:13:49.507Z,6.00
2023-02-06T15:16:16.110Z,5.90
2023-02-06T15:18:42.699Z,5.90
2023-02-06T15:21:12.440Z,5.90
2023-02-06T15:23:44.782Z,5.80
2023-02-06T15:26:20.500Z,5.80
2023-02-06T15:28:47.040Z,5.80
2023-02-06T15:31:18.872Z,6.00
2023-02-06T15:33:48.098Z,6.00
2023-02-06T15:36:20.801Z,6.00
2023-02-06T15:38:47.632Z,6.00
2023-02-06T15:41:14.471Z,5.90
2023-02-06T15:43:41.620Z,5.80
2023-02-06T15:46:09.745Z,5.90
2023-02-06T15:48:43.489Z,5.90
2023-02-06T15:51:21.980Z,5.90
2023-02-06T15:53:50.481Z,5.80
2023-02-06T15:56:28.618Z,5.80
2023-02-06T15:58:58.021Z,5.80
2023-02-06T16:01:25.569Z,5.80
2023-02-06T16:03:55.779Z,5.80
2023-02-06T16:06:22.419Z,5.80
2023-02-06T16:08:50.277Z,5.80
2023-02-06T16:11:35.345Z,5.80
2023-02-06T16:14:02.095Z,5.80
2023-02-06T16:16:29.344Z,5.70
2023-02-06T16:18:57.291Z,5.70
2023-02-06T16:21:30.758Z,5.60
2023-02-06T16:26:52.294Z,5.50
2023-02-06T16:29:23.688Z,5.40
2023-02-06T16:31:56.248Z,5.40
2023-02-06T16:34:38.464Z,5.50
2023-02-06T16:37:12.124Z,5.40
2023-02-06T16:39:42.150Z,5.40
2023-02-06T16:42:13.336Z,5.50
2023-02-06T16:44:45.242Z,5.40
2023-02-06T16:47:13.892Z,5.40
2023-02-06T16:49:40.509Z,5.50
2023-02-06T16:52:07.536Z,5.50
2023-02-06T16:54:34.455Z,5.50
2023-02-06T16:57:20.078Z,5.40
2023-02-06T16:59:46.848Z,5.40
2023-02-06T17:02:14.294Z,5.40
2023-02-06T17:04:41.360Z,5.40
2023-02-06T17:07:21.527Z,5.40
2023-02-06T17:09:51.819Z,5.30
2023-02-06T17:12:22.142Z,5.30
2023-02-06T17:14:54.341Z,5.30
2023-02-06T17:17:21.976Z,5.30
2023-02-06T17:19:49.855Z,5.30
2023-02-06T17:22:16.785Z,5.30
2023-02-06T17:24:43.704Z,5.30
2023-02-06T17:27:15.401Z,5.30
2023-02-06T17:29:41.979Z,5.30
2023-02-06T17:32:09.172Z,5.20
2023-02-06T17:34:37.320Z,5.20
2023-02-06T17:37:04.271Z,5.10
2023-02-06T17:39:30.903Z,5.10
2023-02-06T17:41:57.550Z,5.10
2023-02-06T17:44:24.360Z,5.00
2023-02-06T17:46:51.496Z,5.00
2023-02-06T17:49:18.281Z,4.90
2023-02-06T17:51:45.207Z,4.90
2023-02-06T17:54:12.444Z,4.80
2023-02-06T17:56:39.227Z,4.80
2023-02-06T17:59:05.751Z,4.70
2023-02-06T18:01:32.376Z,4.70
2023-02-06T18:04:00.906Z,4.60
2023-02-06T18:06:31.108Z,4.60
2023-02-06T18:08:57.681Z,4.60
2023-02-06T18:11:24.298Z,4.50
2023-02-06T18:13:50.972Z,4.50
2023-02-06T18:16:19.040Z,4.40
2023-02-06T18:18:45.993Z,4.40
2023-02-06T18:21:12.731Z,4.40
2023-02-06T18:23:39.562Z,4.30
2023-02-06T18:26:08.051Z,4.20
2023-02-06T18:28:35.666Z,4.20
2023-02-06T18:31:02.470Z,4.20
2023-02-06T18:33:29.955Z,4.10
2023-02-06T18:35:56.582Z,4.20
2023-02-06T18:38:23.884Z,4.00
2023-02-06T18:40:50.605Z,4.00
2023-02-06T18:43:17.124Z,3.90
2023-02-06T18:45:43.699Z,3.70
2023-02-06T18:48:11.857Z,3.60
2023-02-06T18:50:39.748Z,3.60
2023-02-06T18:53:06.512Z,3.60
2023-02-06T18:55:35.021Z,3.50
2023-02-06T18:58:02.360Z,3.40
2023-02-06T19:00:29.088Z,3.40
2023-02-06T19:02:57.192Z,3.20
2023-02-06T19:05:23.889Z,3.10
2023-02-06T19:07:51.460Z,3.00
2023-02-06T19:10:18.915Z,2.90
2023-02-06T19:12:45.551Z,2.80
2023-02-06T19:15:12.777Z,2.80
2023-02-06T19:17:39.352Z,2.70
2023-02-06T19:20:06.436Z,2.60
2023-02-06T19:22:33.869Z,2.80
2023-02-06T19:25:00.655Z,2.70
2023-02-06T19:27:27.247Z,2.70
2023-02-06T19:29:53.876Z,2.80
2023-02-06T19:32:20.457Z,2.90
2023-02-06T19:34:47.116Z,3.00
2023-02-06T19:37:13.993Z,2.90
2023-02-06T19:39:40.729Z,3.00
2023-02-06T19:42:09.453Z,2.90
2023-02-06T19:44:36.050Z,2.90
2023-02-06T19:47:03.300Z,2.90
2023-02-06T19:49:29.943Z,2.90
2023-02-06T19:51:56.469Z,2.90
2023-02-06T19:54:23.013Z,2.80
2023-02-06T19:56:49.560Z,2.70
2023-02-06T19:59:19.395Z,2.80
2023-02-06T20:01:46.705Z,2.70
2023-02-06T20:04:13.400Z,2.70
2023-02-06T20:06:40.368Z,2.70
2023-02-06T20:09:06.974Z,2.60
2023-02-06T20:11:33.679Z,2.60
2023-02-06T20:14:00.351Z,2.60
2023-02-06T20:16:30.276Z,2.50
2023-02-06T20:18:56.952Z,2.40
2023-02-06T20:21:34.523Z,2.40
2023-02-06T20:24:02.172Z,2.30
2023-02-06T20:26:31.103Z,2.10
2023-02-06T20:28:58.021Z,2.00
2023-02-06T20:31:25.220Z,2.00
2023-02-06T20:33:52.089Z,2.10
2023-02-06T20:36:19.924Z,2.00
2023-02-06T20:38:53.995Z,2.00
2023-02-06T20:41:22.356Z,1.90
2023-02-06T20:43:48.934Z,1.80
2023-02-06T20:46:17.301Z,1.80
2023-02-06T20:48:45.521Z,1.70
2023-02-06T20:51:12.422Z,1.70
2023-02-06T20:53:39.279Z,1.60
2023-02-06T20:56:08.863Z,1.50
2023-02-06T20:58:35.400Z,1.50
2023-02-06T21:01:02.106Z,1.50
2023-02-06T21:03:29.128Z,1.50
2023-02-06T21:05:59.009Z,1.60
2023-02-06T21:08:25.726Z,1.60
2023-02-06T21:10:52.757Z,1.50
2023-02-06T21:13:19.389Z,1.40
2023-02-06T21:15:52.560Z,1.50
2023-02-06T21:18:19.464Z,1.40
2023-02-06T21:20:46.422Z,1.40
2023-02-06T21:23:13.025Z,1.40
2023-02-06T21:25:39.661Z,1.40
2023-02-06T21:28:06.341Z,1.40
2023-02-06T21:30:32.951Z,1.30
2023-02-06T21:32:59.536Z,1.30
2023-02-06T21:35:30.232Z,1.40
2023-02-06T21:37:56.766Z,1.40
2023-02-06T21:40:23.388Z,1.40
2023-02-06T21:42:49.947Z,1.50
2023-02-06T21:45:16.621Z,1.40
2023-02-06T21:47:43.201Z,1.30
2023-02-06T21:50:09.733Z,1.40
2023-02-06T21:52:36.601Z,1.30
2023-02-06T21:55:09.904Z,1.20
2023-02-06T21:57:36.428Z,1.20
2023-02-06T22:00:03.550Z,1.10
2023-02-06T22:02:30.206Z,1.00
2023-02-06T22:04:56.733Z,1.00
2023-02-06T22:07:23.217Z,1.00
2023-02-06T22:09:49.765Z,1.10
2023-02-06T22:12:16.289Z,1.20
2023-02-06T22:14:42.864Z,1.10
2023-02-06T22:17:09.398Z,1.10
2023-02-06T22:19:37.675Z,1.20
2023-02-06T22:22:04.566Z,1.20
2023-02-06T22:24:31.122Z,1.20
2023-02-06T22:26:57.709Z,1.20
2023-02-06T22:29:24.545Z,1.20
2023-02-06T22:31:51.231Z,1.30
2023-02-06T22:34:19.133Z,1.30
2023-02-06T22:36:45.976Z,1.20
2023-02-06T22:39:13.191Z,1.30
2023-02-06T22:41:40.687Z,1.30
2023-02-06T22:44:07.837Z,1.30
2023-02-06T22:46:35.608Z,1.20
2023-02-06T22:49:02.255Z,1.20
2023-02-06T22:51:28.785Z,1.10
2023-02-06T22:53:55.396Z,1.10
2023-02-06T22:56:38.114Z,0.90
2023-02-06T22:59:07.738Z,0.90
2023-02-06T23:01:36.057Z,1.00
2023-02-06T23:04:03.537Z,0.90
2023-02-06T23:06:31.016Z,0.80
2023-02-06T23:08:58.315Z,0.70
2023-02-06T23:11:25.023Z,0.70
2023-02-06T23:13:55.257Z,0.70
2023-02-06T23:16:22.096Z,0.60
2023-02-06T23:18:49.169Z,0.60
2023-02-06T23:21:18.228Z,0.60
2023-02-06T23:23:44.870Z,0.60
2023-02-06T23:26:14.772Z,0.60
2023-02-06T23:28:41.829Z,0.60
2023-02-06T23:31:08.883Z,0.50
2023-02-06T23:33:35.775Z,0.60
2023-02-06T23:36:12.533Z,0.60
2023-02-06T23:38:39.240Z,0.60
2023-02-06T23:41:07.320Z,0.60
2023-02-06T23:43:33.983Z,0.50
2023-02-06T23:46:00.681Z,0.50
2023-02-06T23:48:27.269Z,0.40
2023-02-06T23:50:53.874Z,0.40
2023-02-06T23:53:20.557Z,0.50
2023-02-06T23:55:47.319Z,0.50
2023-02-06T23:58:13.937Z,0.50
